Sable Island, Canada
Current Conditions -  °F | °C
As of 9:00 AM on Thursday 30 Oct 2014 (Local Time) from CESA Reporting Station
Scattered Clouds Scattered Clouds  
Wind Chill: 62°   Ceiling: Unl
Heat Index: 62°   Visibility: 2.5mi
Dew Point: 60°   Wind: 23mph
Humidity: 93%   Direction: 200°SSW
Pressure: 29.84"   Gusts: NA
Location:  43.95°N, 59.85°W
Report Text: CESA 301200Z AUTO 20020KT 2 1/2SM SCT064 17/16 A2984 RMK SLP105 PK WND 20022/// T01660155 10166 20155 60002 70004 WSI/SWOB
Loading
Personal Weather Stations






























Interactive Weather Map
Tropical Storm Tracking
New forecast layout! Learn more

10-Day Weather Forecast

Advertisements
Track Severe Weather on mobile